sensor_id;sensor_type;location;lat;lon;timestamp;temperature;humidity
69225;DHT22;56333;51.306;17.056;2022-12-17T00:00:31;-2.91;84.30
69225;DHT22;56333;51.306;17.056;2022-12-17T00:02:17;-2.86;84.20
69225;DHT22;56333;51.306;17.056;2022-12-17T00:04:03;-2.87;84.32
69225;DHT22;56333;51.306;17.056;2022-12-17T00:05:50;-2.86;84.07
69225;DHT22;56333;51.306;17.056;2022-12-17T00:07:36;-2.86;83.93
69225;DHT22;56333;51.306;17.056;2022-12-17T00:09:22;-2.89;83.90
69225;DHT22;56333;51.306;17.056;2022-12-17T00:11:08;-2.98;83.88
69225;DHT22;56333;51.306;17.056;2022-12-17T00:12:54;-2.97;83.90
69225;DHT22;56333;51.306;17.056;2022-12-17T00:14:45;-3.01;84.07
69225;DHT22;56333;51.306;17.056;2022-12-17T00:16:31;-3.05;84.03
69225;DHT22;56333;51.306;17.056;2022-12-17T00:18:29;-3.07;84.30
69225;DHT22;56333;51.306;17.056;2022-12-17T00:20:14;-3.06;84.38
69225;DHT22;56333;51.306;17.056;2022-12-17T00:22:00;-3.04;84.20
69225;DHT22;56333;51.306;17.056;2022-12-17T00:23:46;-3.04;84.20
69225;DHT22;56333;51.306;17.056;2022-12-17T00:25:33;-3.02;84.45
69225;DHT22;56333;51.306;17.056;2022-12-17T00:27:18;-2.97;84.45
69225;DHT22;56333;51.306;17.056;2022-12-17T00:29:03;-2.94;84.40
69225;DHT22;56333;51.306;17.056;2022-12-17T00:30:52;-2.97;84.20
69225;DHT22;56333;51.306;17.056;2022-12-17T00:32:38;-3.02;84.18
69225;DHT22;56333;51.306;17.056;2022-12-17T00:34:24;-3.05;84.38
69225;DHT22;56333;51.306;17.056;2022-12-17T00:36:12;-3.04;84.22
69225;DHT22;56333;51.306;17.056;2022-12-17T00:38:00;-3.16;84.60
69225;DHT22;56333;51.306;17.056;2022-12-17T00:39:46;-3.15;84.90
69225;DHT22;56333;51.306;17.056;2022-12-17T00:41:31;-3.12;84.93
69225;DHT22;56333;51.306;17.056;2022-12-17T00:43:19;-3.07;84.63
69225;DHT22;56333;51.306;17.056;2022-12-17T00:45:07;-3.03;84.60
69225;DHT22;56333;51.306;17.056;2022-12-17T00:46:53;-2.97;84.68
69225;DHT22;56333;51.306;17.056;2022-12-17T00:48:39;-2.92;84.68
69225;DHT22;56333;51.306;17.056;2022-12-17T00:50:25;-2.88;84.53
69225;DHT22;56333;51.306;17.056;2022-12-17T00:52:11;-2.88;84.32
69225;DHT22;56333;51.306;17.056;2022-12-17T00:53:56;-2.88;84.25
69225;DHT22;56333;51.306;17.056;2022-12-17T00:55:42;-2.89;84.18
69225;DHT22;56333;51.306;17.056;2022-12-17T00:57:28;-2.96;84.18
69225;DHT22;56333;51.306;17.056;2022-12-17T00:59:13;-3.01;84.00
69225;DHT22;56333;51.306;17.056;2022-12-17T01:01:00;-3.04;84.03
69225;DHT22;56333;51.306;17.056;2022-12-17T01:02:46;-3.13;84.05
69225;DHT22;56333;51.306;17.056;2022-12-17T01:04:32;-3.15;84.30
69225;DHT22;56333;51.306;17.056;2022-12-17T01:06:18;-3.14;84.72
69225;DHT22;56333;51.306;17.056;2022-12-17T01:08:08;-3.08;84.53
69225;DHT22;56333;51.306;17.056;2022-12-17T01:09:56;-3.02;84.47
69225;DHT22;56333;51.306;17.056;2022-12-17T01:11:42;-3.03;84.40
69225;DHT22;56333;51.306;17.056;2022-12-17T01:13:28;-3.03;84.25
69225;DHT22;56333;51.306;17.056;2022-12-17T01:15:14;-3.04;84.20
69225;DHT22;56333;51.306;17.056;2022-12-17T01:17:00;-3.08;84.30
69225;DHT22;56333;51.306;17.056;2022-12-17T01:18:46;-3.10;84.22
69225;DHT22;56333;51.306;17.056;2022-12-17T01:20:32;-3.11;84.45
69225;DHT22;56333;51.306;17.056;2022-12-17T01:22:18;-3.17;84.47
69225;DHT22;56333;51.306;17.056;2022-12-17T01:24:05;-3.17;84.90
69225;DHT22;56333;51.306;17.056;2022-12-17T01:25:55;-3.19;84.72
69225;DHT22;56333;51.306;17.056;2022-12-17T01:27:47;-3.18;84.68
69225;DHT22;56333;51.306;17.056;2022-12-17T01:29:33;-3.16;84.63
69225;DHT22;56333;51.306;17.056;2022-12-17T01:31:19;-3.13;84.55
69225;DHT22;56333;51.306;17.056;2022-12-17T01:33:08;-3.08;84.60
69225;DHT22;56333;51.306;17.056;2022-12-17T01:34:54;-3.07;84.55
69225;DHT22;56333;51.306;17.056;2022-12-17T01:36:40;-3.08;84.65
69225;DHT22;56333;51.306;17.056;2022-12-17T01:38:26;-3.07;84.82
69225;DHT22;56333;51.306;17.056;2022-12-17T01:40:13;-3.11;84.63
69225;DHT22;56333;51.306;17.056;2022-12-17T01:41:58;-3.19;84.93
69225;DHT22;56333;51.306;17.056;2022-12-17T01:43:45;-3.21;85.00
69225;DHT22;56333;51.306;17.056;2022-12-17T01:45:35;-3.20;84.97
69225;DHT22;56333;51.306;17.056;2022-12-17T01:47:25;-3.23;85.22
69225;DHT22;56333;51.306;17.056;2022-12-17T01:49:14;-3.26;85.15
69225;DHT22;56333;51.306;17.056;2022-12-17T01:51:03;-3.24;85.28
69225;DHT22;56333;51.306;17.056;2022-12-17T01:52:50;-3.24;85.22
69225;DHT22;56333;51.306;17.056;2022-12-17T01:54:41;-3.26;85.35
69225;DHT22;56333;51.306;17.056;2022-12-17T01:56:27;-3.19;85.20
69225;DHT22;56333;51.306;17.056;2022-12-17T01:58:14;-3.12;85.07
69225;DHT22;56333;51.306;17.056;2022-12-17T02:00:03;-3.04;85.18
69225;DHT22;56333;51.306;17.056;2022-12-17T02:01:54;-3.00;85.00
69225;DHT22;56333;51.306;17.056;2022-12-17T02:03:40;-2.99;84.82
69225;DHT22;56333;51.306;17.056;2022-12-17T02:05:28;-3.00;84.68
69225;DHT22;56333;51.306;17.056;2022-12-17T02:07:30;-3.04;84.60
69225;DHT22;56333;51.306;17.056;2022-12-17T02:09:34;-3.07;84.70
69225;DHT22;56333;51.306;17.056;2022-12-17T02:11:38;-3.09;84.55
69225;DHT22;56333;51.306;17.056;2022-12-17T02:13:35;-3.09;84.40
69225;DHT22;56333;51.306;17.056;2022-12-17T02:15:27;-3.12;84.53
69225;DHT22;56333;51.306;17.056;2022-12-17T02:17:22;-3.15;84.45
69225;DHT22;56333;51.306;17.056;2022-12-17T02:19:30;-3.17;84.32
69225;DHT22;56333;51.306;17.056;2022-12-17T02:21:27;-3.17;84.43
69225;DHT22;56333;51.306;17.056;2022-12-17T02:23:24;-3.17;84.43
69225;DHT22;56333;51.306;17.056;2022-12-17T02:25:24;-3.14;84.57
69225;DHT22;56333;51.306;17.056;2022-12-17T02:27:19;-3.15;84.65
69225;DHT22;56333;51.306;17.056;2022-12-17T02:29:08;-3.13;84.55
69225;DHT22;56333;51.306;17.056;2022-12-17T02:30:53;-3.16;84.55
69225;DHT22;56333;51.306;17.056;2022-12-17T02:32:42;-3.19;84.63
69225;DHT22;56333;51.306;17.056;2022-12-17T02:34:31;-3.22;84.75
69225;DHT22;56333;51.306;17.056;2022-12-17T02:36:27;-3.30;85.03
69225;DHT22;56333;51.306;17.056;2022-12-17T02:38:19;-3.36;85.28
69225;DHT22;56333;51.306;17.056;2022-12-17T02:40:09;-3.32;84.97
69225;DHT22;56333;51.306;17.056;2022-12-17T02:41:56;-3.34;84.97
69225;DHT22;56333;51.306;17.056;2022-12-17T02:43:38;-3.29;84.97
69225;DHT22;56333;51.306;17.056;2022-12-17T02:45:36;-3.21;85.30
69225;DHT22;56333;51.306;17.056;2022-12-17T02:47:21;-3.15;85.07
69225;DHT22;56333;51.306;17.056;2022-12-17T02:49:09;-3.14;84.97
69225;DHT22;56333;51.306;17.056;2022-12-17T02:50:55;-3.17;84.68
69225;DHT22;56333;51.306;17.056;2022-12-17T02:52:44;-3.18;84.63
69225;DHT22;56333;51.306;17.056;2022-12-17T02:54:32;-3.20;84.88
69225;DHT22;56333;51.306;17.056;2022-12-17T02:56:18;-3.20;84.90
69225;DHT22;56333;51.306;17.056;2022-12-17T02:58:03;-3.20;84.75
69225;DHT22;56333;51.306;17.056;2022-12-17T02:59:50;-3.22;84.93
69225;DHT22;56333;51.306;17.056;2022-12-17T03:01:35;-3.20;84.90
69225;DHT22;56333;51.306;17.056;2022-12-17T03:03:21;-3.18;84.72
69225;DHT22;56333;51.306;17.056;2022-12-17T03:05:07;-3.19;84.60
69225;DHT22;56333;51.306;17.056;2022-12-17T03:06:53;-3.16;84.40
69225;DHT22;56333;51.306;17.056;2022-12-17T03:08:39;-3.13;84.50
69225;DHT22;56333;51.306;17.056;2022-12-17T03:10:25;-3.13;84.45
69225;DHT22;56333;51.306;17.056;2022-12-17T03:12:11;-3.13;84.50
69225;DHT22;56333;51.306;17.056;2022-12-17T03:13:57;-3.11;84.53
69225;DHT22;56333;51.306;17.056;2022-12-17T03:15:55;-3.12;84.40
69225;DHT22;56333;51.306;17.056;2022-12-17T03:17:54;-3.16;84.43
69225;DHT22;56333;51.306;17.056;2022-12-17T03:19:39;-3.17;84.43
69225;DHT22;56333;51.306;17.056;2022-12-17T03:21:25;-3.22;84.35
69225;DHT22;56333;51.306;17.056;2022-12-17T03:23:11;-3.22;84.35
69225;DHT22;56333;51.306;17.056;2022-12-17T03:24:57;-3.24;84.40
69225;DHT22;56333;51.306;17.056;2022-12-17T03:26:42;-3.22;84.28
69225;DHT22;56333;51.306;17.056;2022-12-17T03:28:28;-3.22;84.20
69225;DHT22;56333;51.306;17.056;2022-12-17T03:30:14;-3.21;84.20
69225;DHT22;56333;51.306;17.056;2022-12-17T03:32:00;-3.17;84.35
69225;DHT22;56333;51.306;17.056;2022-12-17T03:33:47;-3.15;84.35
69225;DHT22;56333;51.306;17.056;2022-12-17T03:35:32;-3.14;84.22
69225;DHT22;56333;51.306;17.056;2022-12-17T03:37:18;-3.20;84.05
69225;DHT22;56333;51.306;17.056;2022-12-17T03:39:05;-3.22;84.00
69225;DHT22;56333;51.306;17.056;2022-12-17T03:40:51;-3.28;84.15
69225;DHT22;56333;51.306;17.056;2022-12-17T03:42:37;-3.31;84.18
69225;DHT22;56333;51.306;17.056;2022-12-17T03:44:23;-3.34;84.38
69225;DHT22;56333;51.306;17.056;2022-12-17T03:46:09;-3.36;84.60
69225;DHT22;56333;51.306;17.056;2022-12-17T03:48:05;-3.35;84.30
69225;DHT22;56333;51.306;17.056;2022-12-17T03:49:54;-3.36;84.38
69225;DHT22;56333;51.306;17.056;2022-12-17T03:51:40;-3.33;84.22
69225;DHT22;56333;51.306;17.056;2022-12-17T03:53:25;-3.29;84.22
69225;DHT22;56333;51.306;17.056;2022-12-17T03:55:11;-3.29;84.28
69225;DHT22;56333;51.306;17.056;2022-12-17T03:56:57;-3.25;84.30
69225;DHT22;56333;51.306;17.056;2022-12-17T03:58:43;-3.22;84.38
69225;DHT22;56333;51.306;17.056;2022-12-17T04:00:25;-3.27;84.20
69225;DHT22;56333;51.306;17.056;2022-12-17T04:02:11;-3.26;84.13
69225;DHT22;56333;51.306;17.056;2022-12-17T04:03:57;-3.27;84.30
69225;DHT22;56333;51.306;17.056;2022-12-17T04:05:43;-3.26;84.40
69225;DHT22;56333;51.306;17.056;2022-12-17T04:07:29;-3.26;84.32
69225;DHT22;56333;51.306;17.056;2022-12-17T04:09:15;-3.24;84.07
69225;DHT22;56333;51.306;17.056;2022-12-17T04:11:00;-3.28;84.05
69225;DHT22;56333;51.306;17.056;2022-12-17T04:12:46;-3.30;84.10
69225;DHT22;56333;51.306;17.056;2022-12-17T04:14:33;-3.31;84.15
69225;DHT22;56333;51.306;17.056;2022-12-17T04:16:19;-3.29;84.20
69225;DHT22;56333;51.306;17.056;2022-12-17T04:18:05;-3.28;84.30
69225;DHT22;56333;51.306;17.056;2022-12-17T04:19:51;-3.27;84.15
69225;DHT22;56333;51.306;17.056;2022-12-17T04:21:37;-3.22;84.20
69225;DHT22;56333;51.306;17.056;2022-12-17T04:23:23;-3.24;84.03
69225;DHT22;56333;51.306;17.056;2022-12-17T04:25:09;-3.23;84.10
69225;DHT22;56333;51.306;17.056;2022-12-17T04:26:51;-3.26;84.20
69225;DHT22;56333;51.306;17.056;2022-12-17T04:28:37;-3.24;84.10
69225;DHT22;56333;51.306;17.056;2022-12-17T04:30:23;-3.27;84.25
69225;DHT22;56333;51.306;17.056;2022-12-17T04:32:20;-3.34;84.43
69225;DHT22;56333;51.306;17.056;2022-12-17T04:34:06;-3.34;84.50
69225;DHT22;56333;51.306;17.056;2022-12-17T04:35:51;-3.35;84.47
69225;DHT22;56333;51.306;17.056;2022-12-17T04:37:37;-3.35;84.45
69225;DHT22;56333;51.306;17.056;2022-12-17T04:39:24;-3.36;84.43
69225;DHT22;56333;51.306;17.056;2022-12-17T04:41:10;-3.35;84.72
69225;DHT22;56333;51.306;17.056;2022-12-17T04:42:55;-3.28;84.65
69225;DHT22;56333;51.306;17.056;2022-12-17T04:44:48;-3.24;84.43
69225;DHT22;56333;51.306;17.056;2022-12-17T04:46:34;-3.21;84.22
69225;DHT22;56333;51.306;17.056;2022-12-17T04:48:20;-3.26;84.15
69225;DHT22;56333;51.306;17.056;2022-12-17T04:50:07;-3.24;84.25
69225;DHT22;56333;51.306;17.056;2022-12-17T04:51:53;-3.26;84.10
69225;DHT22;56333;51.306;17.056;2022-12-17T04:53:38;-3.27;84.07
69225;DHT22;56333;51.306;17.056;2022-12-17T04:55:24;-3.27;84.18
69225;DHT22;56333;51.306;17.056;2022-12-17T04:57:18;-3.25;84.22
69225;DHT22;56333;51.306;17.056;2022-12-17T04:59:04;-3.26;84.30
69225;DHT22;56333;51.306;17.056;2022-12-17T05:00:52;-3.34;84.03
69225;DHT22;56333;51.306;17.056;2022-12-17T05:02:39;-3.33;84.10
69225;DHT22;56333;51.306;17.056;2022-12-17T05:04:25;-3.36;84.38
69225;DHT22;56333;51.306;17.056;2022-12-17T05:06:10;-3.32;84.47
69225;DHT22;56333;51.306;17.056;2022-12-17T05:07:56;-3.31;84.38
69225;DHT22;56333;51.306;17.056;2022-12-17T05:09:43;-3.25;84.32
69225;DHT22;56333;51.306;17.056;2022-12-17T05:11:29;-3.20;84.30
69225;DHT22;56333;51.306;17.056;2022-12-17T05:13:11;-3.18;84.22
69225;DHT22;56333;51.306;17.056;2022-12-17T05:14:57;-3.16;84.20
69225;DHT22;56333;51.306;17.056;2022-12-17T05:16:42;-3.18;84.10
69225;DHT22;56333;51.306;17.056;2022-12-17T05:18:29;-3.22;83.93
69225;DHT22;56333;51.306;17.056;2022-12-17T05:20:20;-3.18;84.00
69225;DHT22;56333;51.306;17.056;2022-12-17T05:22:06;-3.32;83.88
69225;DHT22;56333;51.306;17.056;2022-12-17T05:23:52;-3.31;84.10
69225;DHT22;56333;51.306;17.056;2022-12-17T05:25:38;-3.31;84.32
69225;DHT22;56333;51.306;17.056;2022-12-17T05:27:24;-3.31;84.43
69225;DHT22;56333;51.306;17.056;2022-12-17T05:29:10;-3.30;84.38
69225;DHT22;56333;51.306;17.056;2022-12-17T05:30:56;-3.29;84.20
69225;DHT22;56333;51.306;17.056;2022-12-17T05:32:42;-3.28;84.25
69225;DHT22;56333;51.306;17.056;2022-12-17T05:34:28;-3.24;84.30
69225;DHT22;56333;51.306;17.056;2022-12-17T05:36:14;-3.18;84.20
69225;DHT22;56333;51.306;17.056;2022-12-17T05:38:04;-3.13;84.18
69225;DHT22;56333;51.306;17.056;2022-12-17T05:39:53;-3.12;83.95
69225;DHT22;56333;51.306;17.056;2022-12-17T05:41:38;-3.13;83.97
69225;DHT22;56333;51.306;17.056;2022-12-17T05:43:24;-3.15;84.00
69225;DHT22;56333;51.306;17.056;2022-12-17T05:45:11;-3.15;83.93
69225;DHT22;56333;51.306;17.056;2022-12-17T05:46:57;-3.15;83.93
69225;DHT22;56333;51.306;17.056;2022-12-17T05:48:43;-3.16;83.85
69225;DHT22;56333;51.306;17.056;2022-12-17T05:50:29;-3.18;83.75
69225;DHT22;56333;51.306;17.056;2022-12-17T05:52:15;-3.24;83.88
69225;DHT22;56333;51.306;17.056;2022-12-17T05:54:01;-3.28;84.28
69225;DHT22;56333;51.306;17.056;2022-12-17T05:55:50;-3.30;84.25
69225;DHT22;56333;51.306;17.056;2022-12-17T05:57:36;-3.38;84.20
69225;DHT22;56333;51.306;17.056;2022-12-17T05:59:22;-3.35;84.05
69225;DHT22;56333;51.306;17.056;2022-12-17T06:01:07;-3.39;84.22
69225;DHT22;56333;51.306;17.056;2022-12-17T06:02:58;-3.34;84.25
69225;DHT22;56333;51.306;17.056;2022-12-17T06:04:45;-3.30;84.50
69225;DHT22;56333;51.306;17.056;2022-12-17T06:06:31;-3.31;84.55
69225;DHT22;56333;51.306;17.056;2022-12-17T06:08:17;-3.24;84.43
69225;DHT22;56333;51.306;17.056;2022-12-17T06:10:06;-3.25;84.38
69225;DHT22;56333;51.306;17.056;2022-12-17T06:11:52;-3.21;84.20
69225;DHT22;56333;51.306;17.056;2022-12-17T06:13:38;-3.24;84.22
69225;DHT22;56333;51.306;17.056;2022-12-17T06:15:23;-3.21;84.20
69225;DHT22;56333;51.306;17.056;2022-12-17T06:17:09;-3.22;84.10
69225;DHT22;56333;51.306;17.056;2022-12-17T06:18:55;-3.24;84.05
69225;DHT22;56333;51.306;17.056;2022-12-17T06:20:41;-3.23;84.10
69225;DHT22;56333;51.306;17.056;2022-12-17T06:22:27;-3.27;84.15
69225;DHT22;56333;51.306;17.056;2022-12-17T06:24:13;-3.29;83.97
69225;DHT22;56333;51.306;17.056;2022-12-17T06:25:59;-3.25;83.93
69225;DHT22;56333;51.306;17.056;2022-12-17T06:27:45;-3.29;84.00
69225;DHT22;56333;51.306;17.056;2022-12-17T06:29:30;-3.26;84.18
69225;DHT22;56333;51.306;17.056;2022-12-17T06:31:16;-3.23;84.22
69225;DHT22;56333;51.306;17.056;2022-12-17T06:33:06;-3.29;83.97
69225;DHT22;56333;51.306;17.056;2022-12-17T06:34:54;-3.31;84.35
69225;DHT22;56333;51.306;17.056;2022-12-17T06:36:40;-3.30;84.47
69225;DHT22;56333;51.306;17.056;2022-12-17T06:38:26;-3.35;84.40
69225;DHT22;56333;51.306;17.056;2022-12-17T06:40:13;-3.33;84.57
69225;DHT22;56333;51.306;17.056;2022-12-17T06:41:59;-3.38;84.35
69225;DHT22;56333;51.306;17.056;2022-12-17T06:43:45;-3.37;84.43
69225;DHT22;56333;51.306;17.056;2022-12-17T06:45:31;-3.38;84.75
69225;DHT22;56333;51.306;17.056;2022-12-17T06:47:18;-3.37;84.60
69225;DHT22;56333;51.306;17.056;2022-12-17T06:49:04;-3.37;84.75
69225;DHT22;56333;51.306;17.056;2022-12-17T06:50:50;-3.32;84.43
69225;DHT22;56333;51.306;17.056;2022-12-17T06:52:37;-3.28;84.20
69225;DHT22;56333;51.306;17.056;2022-12-17T06:54:23;-3.29;84.18
69225;DHT22;56333;51.306;17.056;2022-12-17T06:56:10;-3.28;84.22
69225;DHT22;56333;51.306;17.056;2022-12-17T06:58:08;-3.25;84.30
69225;DHT22;56333;51.306;17.056;2022-12-17T06:59:54;-3.23;84.20
69225;DHT22;56333;51.306;17.056;2022-12-17T07:01:40;-3.30;84.18
69225;DHT22;56333;51.306;17.056;2022-12-17T07:03:26;-3.26;84.10
69225;DHT22;56333;51.306;17.056;2022-12-17T07:05:13;-3.31;84.10
69225;DHT22;56333;51.306;17.056;2022-12-17T07:07:13;-3.32;84.07
69225;DHT22;56333;51.306;17.056;2022-12-17T07:08:58;-3.35;84.10
69225;DHT22;56333;51.306;17.056;2022-12-17T07:10:44;-3.38;84.35
69225;DHT22;56333;51.306;17.056;2022-12-17T07:12:30;-3.43;84.50
69225;DHT22;56333;51.306;17.056;2022-12-17T07:14:22;-3.47;84.85
69225;DHT22;56333;51.306;17.056;2022-12-17T07:16:07;-3.39;84.43
69225;DHT22;56333;51.306;17.056;2022-12-17T07:17:57;-3.35;84.63
69225;DHT22;56333;51.306;17.056;2022-12-17T07:19:45;-3.30;84.65
69225;DHT22;56333;51.306;17.056;2022-12-17T07:21:31;-3.33;84.50
69225;DHT22;56333;51.306;17.056;2022-12-17T07:23:17;-3.34;84.50
69225;DHT22;56333;51.306;17.056;2022-12-17T07:25:03;-3.36;84.63
69225;DHT22;56333;51.306;17.056;2022-12-17T07:26:50;-3.36;84.63
69225;DHT22;56333;51.306;17.056;2022-12-17T07:28:36;-3.33;84.72
69225;DHT22;56333;51.306;17.056;2022-12-17T07:30:22;-3.39;84.78
69225;DHT22;56333;51.306;17.056;2022-12-17T07:32:08;-3.39;84.88
69225;DHT22;56333;51.306;17.056;2022-12-17T07:33:54;-3.35;84.68
69225;DHT22;56333;51.306;17.056;2022-12-17T07:35:40;-3.35;84.60
69225;DHT22;56333;51.306;17.056;2022-12-17T07:37:26;-3.33;85.07
69225;DHT22;56333;51.306;17.056;2022-12-17T07:39:08;-3.27;85.00
69225;DHT22;56333;51.306;17.056;2022-12-17T07:40:54;-3.17;84.82
69225;DHT22;56333;51.306;17.056;2022-12-17T07:42:41;-3.17;84.90
69225;DHT22;56333;51.306;17.056;2022-12-17T07:44:26;-3.14;84.90
69225;DHT22;56333;51.306;17.056;2022-12-17T07:46:12;-3.07;84.60
69225;DHT22;56333;51.306;17.056;2022-12-17T07:47:58;-3.09;84.57
69225;DHT22;56333;51.306;17.056;2022-12-17T07:49:45;-3.06;84.57
69225;DHT22;56333;51.306;17.056;2022-12-17T07:51:39;-3.05;84.22
69225;DHT22;56333;51.306;17.056;2022-12-17T07:53:25;-3.10;84.50
69225;DHT22;56333;51.306;17.056;2022-12-17T07:55:11;-3.09;84.35
69225;DHT22;56333;51.306;17.056;2022-12-17T07:57:02;-3.15;84.55
69225;DHT22;56333;51.306;17.056;2022-12-17T07:58:47;-3.19;84.65
69225;DHT22;56333;51.306;17.056;2022-12-17T08:00:32;-3.20;85.15
69225;DHT22;56333;51.306;17.056;2022-12-17T08:02:19;-3.12;84.90
69225;DHT22;56333;51.306;17.056;2022-12-17T08:04:05;-3.08;84.65
69225;DHT22;56333;51.306;17.056;2022-12-17T08:05:51;-3.06;84.55
69225;DHT22;56333;51.306;17.056;2022-12-17T08:07:40;-3.08;84.50
69225;DHT22;56333;51.306;17.056;2022-12-17T08:09:25;-3.11;84.63
69225;DHT22;56333;51.306;17.056;2022-12-17T08:11:08;-3.12;84.80
69225;DHT22;56333;51.306;17.056;2022-12-17T08:12:57;-3.08;84.88
69225;DHT22;56333;51.306;17.056;2022-12-17T08:14:45;-3.09;85.07
69225;DHT22;56333;51.306;17.056;2022-12-17T08:16:31;-3.08;85.18
69225;DHT22;56333;51.306;17.056;2022-12-17T08:18:17;-3.07;84.80
69225;DHT22;56333;51.306;17.056;2022-12-17T08:20:04;-3.06;85.07
69225;DHT22;56333;51.306;17.056;2022-12-17T08:21:52;-3.03;85.03
69225;DHT22;56333;51.306;17.056;2022-12-17T08:23:38;-2.99;84.93
69225;DHT22;56333;51.306;17.056;2022-12-17T08:25:24;-3.02;85.00
69225;DHT22;56333;51.306;17.056;2022-12-17T08:27:10;-3.03;84.65
69225;DHT22;56333;51.306;17.056;2022-12-17T08:28:55;-3.02;85.05
69225;DHT22;56333;51.306;17.056;2022-12-17T08:30:41;-2.92;84.88
69225;DHT22;56333;51.306;17.056;2022-12-17T08:32:30;-2.84;84.80
69225;DHT22;56333;51.306;17.056;2022-12-17T08:34:16;-2.89;84.45
69225;DHT22;56333;51.306;17.056;2022-12-17T08:36:02;-2.84;84.47
69225;DHT22;56333;51.306;17.056;2022-12-17T08:37:59;-2.86;84.63
69225;DHT22;56333;51.306;17.056;2022-12-17T08:39:46;-2.83;84.65
69225;DHT22;56333;51.306;17.056;2022-12-17T08:41:30;-2.91;84.50
69225;DHT22;56333;51.306;17.056;2022-12-17T08:43:16;-2.97;84.72
69225;DHT22;56333;51.306;17.056;2022-12-17T08:45:02;-2.95;84.80
69225;DHT22;56333;51.306;17.056;2022-12-17T08:46:50;-2.95;84.68
69225;DHT22;56333;51.306;17.056;2022-12-17T08:48:36;-2.96;84.70
69225;DHT22;56333;51.306;17.056;2022-12-17T08:50:22;-2.97;84.97
69225;DHT22;56333;51.306;17.056;2022-12-17T08:52:08;-2.89;84.97
69225;DHT22;56333;51.306;17.056;2022-12-17T08:54:00;-2.80;84.95
69225;DHT22;56333;51.306;17.056;2022-12-17T08:55:49;-2.75;84.80
69225;DHT22;56333;51.306;17.056;2022-12-17T08:57:35;-2.81;84.55
69225;DHT22;56333;51.306;17.056;2022-12-17T08:59:21;-2.78;84.95
69225;DHT22;56333;51.306;17.056;2022-12-17T09:01:07;-2.74;84.75
69225;DHT22;56333;51.306;17.056;2022-12-17T09:02:57;-2.75;84.55
69225;DHT22;56333;51.306;17.056;2022-12-17T09:04:45;-2.78;84.72
69225;DHT22;56333;51.306;17.056;2022-12-17T09:06:31;-2.81;84.68
69225;DHT22;56333;51.306;17.056;2022-12-17T09:08:17;-2.81;85.00
69225;DHT22;56333;51.306;17.056;2022-12-17T09:10:04;-2.85;85.15
69225;DHT22;56333;51.306;17.056;2022-12-17T09:11:51;-2.81;85.25
69225;DHT22;56333;51.306;17.056;2022-12-17T09:13:37;-2.75;85.30
69225;DHT22;56333;51.306;17.056;2022-12-17T09:15:23;-2.72;85.10
69225;DHT22;56333;51.306;17.056;2022-12-17T09:17:09;-2.63;84.93
69225;DHT22;56333;51.306;17.056;2022-12-17T09:18:55;-2.61;84.85
69225;DHT22;56333;51.306;17.056;2022-12-17T09:20:54;-2.54;84.75
69225;DHT22;56333;51.306;17.056;2022-12-17T09:22:38;-2.50;84.70
69225;DHT22;56333;51.306;17.056;2022-12-17T09:24:24;-2.48;84.45
69225;DHT22;56333;51.306;17.056;2022-12-17T09:26:10;-2.47;84.30
69225;DHT22;56333;51.306;17.056;2022-12-17T09:28:00;-2.48;84.22
69225;DHT22;56333;51.306;17.056;2022-12-17T09:29:46;-2.49;83.85
69225;DHT22;56333;51.306;17.056;2022-12-17T09:31:32;-2.51;83.72
69225;DHT22;56333;51.306;17.056;2022-12-17T09:33:18;-2.58;83.82
69225;DHT22;56333;51.306;17.056;2022-12-17T09:35:05;-2.57;84.05
69225;DHT22;56333;51.306;17.056;2022-12-17T09:36:51;-2.53;84.13
69225;DHT22;56333;51.306;17.056;2022-12-17T09:38:37;-2.47;84.13
69225;DHT22;56333;51.306;17.056;2022-12-17T09:40:24;-2.43;84.10
69225;DHT22;56333;51.306;17.056;2022-12-17T09:42:13;-2.45;84.00
69225;DHT22;56333;51.306;17.056;2022-12-17T09:44:12;-2.41;84.03
69225;DHT22;56333;51.306;17.056;2022-12-17T09:46:06;-2.52;83.90
69225;DHT22;56333;51.306;17.056;2022-12-17T09:48:01;-2.57;83.88
69225;DHT22;56333;51.306;17.056;2022-12-17T09:49:56;-2.57;84.05
69225;DHT22;56333;51.306;17.056;2022-12-17T09:51:44;-2.55;84.07
69225;DHT22;56333;51.306;17.056;2022-12-17T09:53:34;-2.59;84.43
69225;DHT22;56333;51.306;17.056;2022-12-17T09:55:24;-2.54;84.35
69225;DHT22;56333;51.306;17.056;2022-12-17T09:57:19;-2.47;84.28
69225;DHT22;56333;51.306;17.056;2022-12-17T09:59:09;-2.47;84.55
69225;DHT22;56333;51.306;17.056;2022-12-17T10:01:08;-2.40;84.13
69225;DHT22;56333;51.306;17.056;2022-12-17T10:02:59;-2.40;83.95
69225;DHT22;56333;51.306;17.056;2022-12-17T10:04:50;-2.43;83.93
69225;DHT22;56333;51.306;17.056;2022-12-17T10:06:36;-2.38;83.95
69225;DHT22;56333;51.306;17.056;2022-12-17T10:08:22;-2.34;83.90
69225;DHT22;56333;51.306;17.056;2022-12-17T10:10:20;-2.35;83.72
69225;DHT22;56333;51.306;17.056;2022-12-17T10:12:14;-2.34;83.60
69225;DHT22;56333;51.306;17.056;2022-12-17T10:14:03;-2.32;83.68
69225;DHT22;56333;51.306;17.056;2022-12-17T10:16:23;-2.30;83.60
69225;DHT22;56333;51.306;17.056;2022-12-17T10:18:11;-2.33;83.50
69225;DHT22;56333;51.306;17.056;2022-12-17T10:20:02;-2.32;83.50
69225;DHT22;56333;51.306;17.056;2022-12-17T10:22:08;-2.33;83.90
69225;DHT22;56333;51.306;17.056;2022-12-17T10:24:06;-2.22;83.80
69225;DHT22;56333;51.306;17.056;2022-12-17T10:25:54;-2.19;83.90
69225;DHT22;56333;51.306;17.056;2022-12-17T10:27:40;-2.22;83.53
69225;DHT22;56333;51.306;17.056;2022-12-17T10:29:31;-2.21;83.50
69225;DHT22;56333;51.306;17.056;2022-12-17T10:31:20;-2.18;83.57
69225;DHT22;56333;51.306;17.056;2022-12-17T10:33:14;-2.22;83.30
69225;DHT22;56333;51.306;17.056;2022-12-17T10:35:05;-2.28;83.43
69225;DHT22;56333;51.306;17.056;2022-12-17T10:36:51;-2.32;83.57
69225;DHT22;56333;51.306;17.056;2022-12-17T10:38:37;-2.33;83.63
69225;DHT22;56333;51.306;17.056;2022-12-17T10:40:30;-2.37;83.45
69225;DHT22;56333;51.306;17.056;2022-12-17T10:42:22;-2.39;83.97
69225;DHT22;56333;51.306;17.056;2022-12-17T10:44:22;-2.42;83.80
69225;DHT22;56333;51.306;17.056;2022-12-17T10:46:10;-2.44;83.70
69225;DHT22;56333;51.306;17.056;2022-12-17T10:48:17;-2.38;83.82
69225;DHT22;56333;51.306;17.056;2022-12-17T10:50:09;-2.35;83.85
69225;DHT22;56333;51.306;17.056;2022-12-17T10:52:06;-2.31;83.75
69225;DHT22;56333;51.306;17.056;2022-12-17T10:54:25;-2.36;84.03
69225;DHT22;56333;51.306;17.056;2022-12-17T10:56:21;-2.34;83.88
69225;DHT22;56333;51.306;17.056;2022-12-17T10:58:13;-2.33;83.85
69225;DHT22;56333;51.306;17.056;2022-12-17T11:00:01;-2.29;83.80
69225;DHT22;56333;51.306;17.056;2022-12-17T11:02:00;-2.26;83.63
69225;DHT22;56333;51.306;17.056;2022-12-17T11:03:54;-2.31;83.35
69225;DHT22;56333;51.306;17.056;2022-12-17T11:05:40;-2.31;83.20
69225;DHT22;56333;51.306;17.056;2022-12-17T11:07:28;-2.35;83.35
69225;DHT22;56333;51.306;17.056;2022-12-17T11:09:28;-2.35;83.53
69225;DHT22;56333;51.306;17.056;2022-12-17T11:11:21;-2.34;83.75